Aviation Digital Data Service (ADDS)

Output produced by METARs form (1338 UTC 26 August 2016)
found at http://aviationweather.gov/adds/metars/
 
KARA 261130Z 2612/2712 04005KT 5SM BR BKN005 
     TEMPO 2612/2614 P6SM NSW SCT005 SCT015 
     FM261400 05006KT P6SM SCT015 BKN200 
     FM261800 07007KT P6SM VCTS SCT035CB SCT200 
     FM270000 05003KT P6SM FEW050 BKN150